MQT83M LFMN-LIPZ
Flight info
| Callsign | MQT83M |
|---|---|
| Flight time | 1h 19m |
| Altitude | 8000 |
| Route | BASIP Y15 EGHIN Z388 CHI |
| Aircraft | AEST/L-SBDFGRY/S |
Departure
| Time | 2026-05-05 17:35 |
|---|---|
| Airport | Nice-Côte d'Azur Airport (LFMN) |
Arrival
| Time | 2026-05-05 18:54 |
|---|---|
| Airport | Venice Marco Polo Airport (LIPZ) |
| Time | Latitude | Longitude | Altitude | Speed | Heading |
|---|---|---|---|---|---|
| 2026-05-05 17:21 | 43.67065 | 7.22734 | 44 ft | 0 kts | 131° |
| 2026-05-05 17:28 | 43.67062 | 7.22738 | 17 ft | 3 kts | 152° |
| 2026-05-05 17:28 | 43.67059 | 7.22678 | 17 ft | 10 kts | 265° |
| 2026-05-05 17:28 | 43.67001 | 7.22592 | 17 ft | 16 kts | 223° |
| 2026-05-05 17:29 | 43.66901 | 7.22458 | 17 ft | 22 kts | 225° |
| 2026-05-05 17:29 | 43.66795 | 7.22308 | 17 ft | 22 kts | 224° |
| 2026-05-05 17:29 | 43.66688 | 7.22163 | 17 ft | 21 kts | 226° |
| 2026-05-05 17:29 | 43.66582 | 7.22022 | 17 ft | 21 kts | 225° |
| 2026-05-05 17:30 | 43.66481 | 7.21877 | 17 ft | 21 kts | 224° |
| 2026-05-05 17:30 | 43.66376 | 7.21738 | 17 ft | 21 kts | 226° |
| 2026-05-05 17:30 | 43.66274 | 7.21595 | 17 ft | 21 kts | 224° |
| 2026-05-05 17:30 | 43.66168 | 7.21455 | 17 ft | 21 kts | 227° |
| 2026-05-05 17:31 | 43.66073 | 7.21321 | 17 ft | 20 kts | 224° |
| 2026-05-05 17:31 | 43.65959 | 7.21166 | 17 ft | 26 kts | 224° |
| 2026-05-05 17:31 | 43.65827 | 7.20988 | 17 ft | 25 kts | 223° |
| 2026-05-05 17:31 | 43.65724 | 7.20887 | 17 ft | 11 kts | 171° |
| 2026-05-05 17:32 | 43.65705 | 7.20891 | 17 ft | 0 kts | 173° |
| 2026-05-05 17:32 | 43.65694 | 7.20893 | 17 ft | 7 kts | 173° |
| 2026-05-05 17:32 | 43.65614 | 7.20909 | 17 ft | 17 kts | 171° |
| 2026-05-05 17:32 | 43.65486 | 7.20938 | 17 ft | 18 kts | 169° |
| 2026-05-05 17:33 | 43.65371 | 7.20959 | 17 ft | 15 kts | 188° |
| 2026-05-05 17:33 | 43.65294 | 7.20890 | 17 ft | 9 kts | 201° |
| 2026-05-05 17:33 | 43.65267 | 7.20886 | 17 ft | 0 kts | 173° |
| 2026-05-05 17:34 | 43.65249 | 7.20894 | 17 ft | 8 kts | 151° |
| 2026-05-05 17:34 | 43.65217 | 7.20975 | 18 ft | 10 kts | 81° |
| 2026-05-05 17:34 | 43.65248 | 7.21040 | 18 ft | 7 kts | 44° |
| 2026-05-05 17:35 | 43.65462 | 7.21335 | 20 ft | 80 kts | 45° |
| 2026-05-05 17:35 | 43.65939 | 7.22014 | 59 ft | 107 kts | 49° |
| 2026-05-05 17:35 | 43.66497 | 7.22810 | 297 ft | 124 kts | 50° |
| 2026-05-05 17:35 | 43.67040 | 7.23714 | 850 ft | 120 kts | 65° |
| 2026-05-05 17:36 | 43.67227 | 7.24842 | 1254 ft | 125 kts | 94° |
| 2026-05-05 17:36 | 43.66988 | 7.25977 | 1716 ft | 122 kts | 116° |
| 2026-05-05 17:36 | 43.66496 | 7.26947 | 2054 ft | 129 kts | 129° |
| 2026-05-05 17:36 | 43.65909 | 7.27919 | 2395 ft | 130 kts | 129° |
| 2026-05-05 17:37 | 43.65366 | 7.28899 | 2768 ft | 129 kts | 128° |
| 2026-05-05 17:37 | 43.64985 | 7.29554 | 2933 ft | 135 kts | 132° |
| 2026-05-05 17:37 | 43.64158 | 7.30828 | 3398 ft | 131 kts | 134° |
| 2026-05-05 17:37 | 43.63561 | 7.31791 | 3673 ft | 135 kts | 128° |
| 2026-05-05 17:38 | 43.63235 | 7.33039 | 3806 ft | 148 kts | 94° |
| 2026-05-05 17:38 | 43.63465 | 7.34433 | 4171 ft | 142 kts | 70° |
| 2026-05-05 17:38 | 43.63829 | 7.35648 | 4542 ft | 141 kts | 69° |
| 2026-05-05 17:38 | 43.64224 | 7.36957 | 4692 ft | 151 kts | 66° |
| 2026-05-05 17:39 | 43.64640 | 7.38256 | 5052 ft | 144 kts | 70° |
| 2026-05-05 17:39 | 43.64977 | 7.39567 | 5278 ft | 148 kts | 72° |
| 2026-05-05 17:39 | 43.65315 | 7.40947 | 5544 ft | 152 kts | 72° |
| 2026-05-05 17:39 | 43.65715 | 7.42252 | 5956 ft | 147 kts | 66° |
| 2026-05-05 17:40 | 43.66142 | 7.43573 | 6200 ft | 154 kts | 67° |
| 2026-05-05 17:40 | 43.66600 | 7.44914 | 6522 ft | 153 kts | 66° |
| 2026-05-05 17:40 | 43.66967 | 7.46287 | 6812 ft | 154 kts | 74° |
| 2026-05-05 17:40 | 43.67256 | 7.47727 | 7068 ft | 156 kts | 76° |
| 2026-05-05 17:41 | 43.67565 | 7.49146 | 7368 ft | 154 kts | 73° |
| 2026-05-05 17:41 | 43.67918 | 7.50564 | 7593 ft | 158 kts | 72° |
| 2026-05-05 17:41 | 43.68262 | 7.52004 | 7861 ft | 157 kts | 73° |
| 2026-05-05 17:41 | 43.68623 | 7.53436 | 8113 ft | 160 kts | 70° |
| 2026-05-05 17:42 | 43.69029 | 7.54866 | 8396 ft | 159 kts | 69° |
| 2026-05-05 17:42 | 43.69425 | 7.56295 | 8688 ft | 160 kts | 71° |
| 2026-05-05 17:42 | 43.69789 | 7.57755 | 8947 ft | 162 kts | 72° |
| 2026-05-05 17:42 | 43.70160 | 7.59228 | 9224 ft | 163 kts | 73° |
| 2026-05-05 17:43 | 43.70477 | 7.60747 | 9472 ft | 165 kts | 74° |
| 2026-05-05 17:43 | 43.70839 | 7.62239 | 9728 ft | 167 kts | 70° |
| 2026-05-05 17:43 | 43.71301 | 7.63711 | 9975 ft | 167 kts | 64° |
| 2026-05-05 17:43 | 43.71820 | 7.65158 | 10207 ft | 169 kts | 66° |
| 2026-05-05 17:44 | 43.72263 | 7.66669 | 10429 ft | 171 kts | 69° |
| 2026-05-05 17:44 | 43.72677 | 7.68210 | 10659 ft | 171 kts | 72° |
| 2026-05-05 17:44 | 43.73063 | 7.69774 | 10886 ft | 172 kts | 72° |
| 2026-05-05 17:44 | 43.73604 | 7.71270 | 11039 ft | 178 kts | 56° |
| 2026-05-05 17:45 | 43.74361 | 7.72612 | 11282 ft | 175 kts | 49° |
| 2026-05-05 17:45 | 43.75125 | 7.73911 | 11531 ft | 175 kts | 50° |
| 2026-05-05 17:45 | 43.75912 | 7.75236 | 11663 ft | 180 kts | 50° |
| 2026-05-05 17:45 | 43.76719 | 7.76552 | 11906 ft | 178 kts | 49° |
| 2026-05-05 17:46 | 43.77524 | 7.77920 | 11957 ft | 188 kts | 52° |
| 2026-05-05 17:46 | 43.78359 | 7.79374 | 11955 ft | 198 kts | 48° |
| 2026-05-05 17:46 | 43.79309 | 7.80810 | 11949 ft | 206 kts | 46° |
| 2026-05-05 17:46 | 43.80296 | 7.82278 | 11952 ft | 211 kts | 46° |
| 2026-05-05 17:47 | 43.81296 | 7.83788 | 11953 ft | 215 kts | 47° |
| 2026-05-05 17:47 | 43.82303 | 7.85337 | 11951 ft | 218 kts | 47° |
| 2026-05-05 17:47 | 43.83319 | 7.86918 | 11954 ft | 221 kts | 47° |
| 2026-05-05 17:47 | 43.84326 | 7.88497 | 11958 ft | 222 kts | 48° |
| 2026-05-05 17:48 | 43.85351 | 7.90107 | 11958 ft | 223 kts | 48° |
| 2026-05-05 17:48 | 43.86372 | 7.91720 | 11955 ft | 223 kts | 48° |
| 2026-05-05 17:48 | 43.87393 | 7.93334 | 11965 ft | 222 kts | 47° |
| 2026-05-05 17:48 | 43.88417 | 7.94928 | 11959 ft | 220 kts | 48° |
| 2026-05-05 17:49 | 43.89426 | 7.96516 | 11950 ft | 218 kts | 48° |
| 2026-05-05 17:49 | 43.90422 | 7.98099 | 11955 ft | 218 kts | 49° |
| 2026-05-05 17:49 | 43.91408 | 7.99682 | 11960 ft | 216 kts | 49° |
| 2026-05-05 17:49 | 43.92387 | 8.01248 | 11970 ft | 215 kts | 48° |
| 2026-05-05 17:50 | 43.93379 | 8.02809 | 11963 ft | 217 kts | 48° |
| 2026-05-05 17:50 | 43.94382 | 8.04382 | 11964 ft | 218 kts | 48° |
| 2026-05-05 17:50 | 43.95386 | 8.05959 | 11971 ft | 218 kts | 48° |
| 2026-05-05 17:50 | 43.96389 | 8.07541 | 11947 ft | 219 kts | 48° |
| 2026-05-05 17:51 | 43.97384 | 8.09114 | 11972 ft | 217 kts | 49° |
| 2026-05-05 17:51 | 43.98375 | 8.10691 | 11962 ft | 216 kts | 48° |
| 2026-05-05 17:51 | 43.99367 | 8.12270 | 11964 ft | 217 kts | 48° |
| 2026-05-05 17:51 | 44.00365 | 8.13846 | 11969 ft | 218 kts | 48° |
| 2026-05-05 17:52 | 44.01367 | 8.15425 | 11965 ft | 218 kts | 49° |
| 2026-05-05 17:52 | 44.02362 | 8.17013 | 11969 ft | 218 kts | 49° |
| 2026-05-05 17:52 | 44.03362 | 8.18603 | 11968 ft | 219 kts | 49° |
| 2026-05-05 17:52 | 44.04352 | 8.20173 | 11967 ft | 219 kts | 49° |
| 2026-05-05 17:53 | 44.05280 | 8.21857 | 11952 ft | 220 kts | 62° |
| 2026-05-05 17:53 | 44.05818 | 8.23824 | 11976 ft | 217 kts | 76° |
| 2026-05-05 17:53 | 44.06236 | 8.25848 | 11963 ft | 218 kts | 77° |
| 2026-05-05 17:53 | 44.06641 | 8.27877 | 11961 ft | 218 kts | 78° |
| 2026-05-05 17:54 | 44.07039 | 8.29910 | 11959 ft | 218 kts | 78° |
| 2026-05-05 17:54 | 44.07437 | 8.31944 | 11965 ft | 218 kts | 78° |
| 2026-05-05 17:54 | 44.07836 | 8.33980 | 11958 ft | 218 kts | 78° |
| 2026-05-05 17:54 | 44.08234 | 8.36012 | 11954 ft | 217 kts | 78° |
| 2026-05-05 17:55 | 44.08633 | 8.38039 | 11961 ft | 217 kts | 78° |
| 2026-05-05 17:55 | 44.09032 | 8.40062 | 11957 ft | 217 kts | 77° |
| 2026-05-05 17:55 | 44.09436 | 8.42079 | 11956 ft | 216 kts | 77° |
| 2026-05-05 17:55 | 44.09840 | 8.44089 | 11949 ft | 216 kts | 77° |
| 2026-05-05 17:56 | 44.10241 | 8.46100 | 11947 ft | 216 kts | 77° |
| 2026-05-05 17:56 | 44.10641 | 8.48113 | 11952 ft | 216 kts | 77° |
| 2026-05-05 17:56 | 44.11035 | 8.50118 | 11945 ft | 214 kts | 78° |
| 2026-05-05 17:56 | 44.11426 | 8.52119 | 11946 ft | 214 kts | 77° |
| 2026-05-05 17:57 | 44.11686 | 8.53440 | 11955 ft | 214 kts | 77° |
| 2026-05-05 17:57 | 44.12080 | 8.55434 | 11947 ft | 213 kts | 77° |
| 2026-05-05 17:57 | 44.12474 | 8.57423 | 11946 ft | 213 kts | 77° |
| 2026-05-05 17:57 | 44.12867 | 8.59409 | 11948 ft | 213 kts | 77° |
| 2026-05-05 17:58 | 44.13260 | 8.61397 | 11943 ft | 213 kts | 77° |
| 2026-05-05 17:58 | 44.13781 | 8.64025 | 11945 ft | 212 kts | 77° |
| 2026-05-05 17:58 | 44.14045 | 8.65365 | 11949 ft | 213 kts | 77° |
| 2026-05-05 17:58 | 44.14436 | 8.67352 | 11945 ft | 213 kts | 77° |
| 2026-05-05 17:59 | 44.14826 | 8.69334 | 11948 ft | 212 kts | 77° |
| 2026-05-05 17:59 | 44.15215 | 8.71316 | 11948 ft | 212 kts | 77° |
| 2026-05-05 17:59 | 44.15604 | 8.73298 | 11940 ft | 212 kts | 77° |
| 2026-05-05 17:59 | 44.15993 | 8.75282 | 11950 ft | 212 kts | 77° |
| 2026-05-05 18:00 | 44.16382 | 8.77266 | 11949 ft | 213 kts | 77° |
| 2026-05-05 18:00 | 44.16767 | 8.79226 | 11953 ft | 213 kts | 77° |
| 2026-05-05 18:00 | 44.17156 | 8.81215 | 11951 ft | 213 kts | 78° |
| 2026-05-05 18:00 | 44.17544 | 8.83204 | 11955 ft | 213 kts | 78° |
| 2026-05-05 18:01 | 44.17931 | 8.85193 | 11950 ft | 213 kts | 78° |
| 2026-05-05 18:01 | 44.18318 | 8.87184 | 11948 ft | 213 kts | 78° |
| 2026-05-05 18:01 | 44.18705 | 8.89173 | 11948 ft | 213 kts | 78° |
| 2026-05-05 18:01 | 44.19093 | 8.91164 | 11950 ft | 213 kts | 78° |
| 2026-05-05 18:02 | 44.19480 | 8.93153 | 11953 ft | 213 kts | 78° |
| 2026-05-05 18:02 | 44.19867 | 8.95145 | 11956 ft | 213 kts | 78° |
| 2026-05-05 18:02 | 44.20253 | 8.97138 | 11954 ft | 213 kts | 78° |
| 2026-05-05 18:02 | 44.20639 | 8.99130 | 11958 ft | 213 kts | 78° |
| 2026-05-05 18:03 | 44.21024 | 9.01121 | 11951 ft | 213 kts | 78° |
| 2026-05-05 18:03 | 44.21409 | 9.03114 | 11951 ft | 213 kts | 78° |
| 2026-05-05 18:03 | 44.21794 | 9.05105 | 11958 ft | 213 kts | 78° |
| 2026-05-05 18:03 | 44.22178 | 9.07097 | 11952 ft | 213 kts | 78° |
| 2026-05-05 18:04 | 44.22562 | 9.09090 | 11944 ft | 213 kts | 78° |
| 2026-05-05 18:04 | 44.22945 | 9.11093 | 11955 ft | 214 kts | 78° |
| 2026-05-05 18:04 | 44.23329 | 9.13094 | 11956 ft | 214 kts | 78° |
| 2026-05-05 18:04 | 44.23714 | 9.15098 | 11957 ft | 214 kts | 77° |
| 2026-05-05 18:05 | 44.24100 | 9.17105 | 11954 ft | 214 kts | 78° |
| 2026-05-05 18:05 | 44.24486 | 9.19110 | 11955 ft | 214 kts | 78° |
| 2026-05-05 18:05 | 44.24866 | 9.21084 | 11957 ft | 214 kts | 78° |
| 2026-05-05 18:05 | 44.25257 | 9.23115 | 11951 ft | 214 kts | 78° |
| 2026-05-05 18:06 | 44.25634 | 9.25092 | 11953 ft | 214 kts | 78° |
| 2026-05-05 18:06 | 44.25892 | 9.26447 | 11952 ft | 214 kts | 78° |
| 2026-05-05 18:06 | 44.26398 | 9.29105 | 11955 ft | 214 kts | 78° |
| 2026-05-05 18:06 | 44.26780 | 9.31111 | 11953 ft | 214 kts | 78° |
| 2026-05-05 18:07 | 44.27159 | 9.33116 | 11953 ft | 214 kts | 78° |
| 2026-05-05 18:07 | 44.27539 | 9.35116 | 11964 ft | 213 kts | 78° |
| 2026-05-05 18:07 | 44.27920 | 9.37118 | 11956 ft | 214 kts | 78° |
| 2026-05-05 18:07 | 44.28301 | 9.39123 | 11960 ft | 214 kts | 78° |
| 2026-05-05 18:08 | 44.28681 | 9.41129 | 11960 ft | 214 kts | 78° |
| 2026-05-05 18:08 | 44.29062 | 9.43140 | 11964 ft | 214 kts | 78° |
| 2026-05-05 18:08 | 44.29443 | 9.45151 | 11962 ft | 214 kts | 78° |
| 2026-05-05 18:08 | 44.29824 | 9.47167 | 11950 ft | 217 kts | 78° |
| 2026-05-05 18:09 | 44.30208 | 9.49200 | 11958 ft | 216 kts | 78° |
| 2026-05-05 18:09 | 44.30589 | 9.51234 | 11959 ft | 217 kts | 78° |
| 2026-05-05 18:09 | 44.30976 | 9.53275 | 11950 ft | 217 kts | 78° |
| 2026-05-05 18:09 | 44.31361 | 9.55308 | 11958 ft | 216 kts | 79° |
| 2026-05-05 18:10 | 44.31737 | 9.57341 | 11945 ft | 216 kts | 78° |
| 2026-05-05 18:10 | 44.32143 | 9.59319 | 11961 ft | 215 kts | 74° |
| 2026-05-05 18:10 | 44.32679 | 9.61301 | 11960 ft | 216 kts | 70° |
| 2026-05-05 18:10 | 44.33240 | 9.63251 | 11963 ft | 217 kts | 70° |
| 2026-05-05 18:11 | 44.33801 | 9.65212 | 11956 ft | 218 kts | 70° |
| 2026-05-05 18:11 | 44.34365 | 9.67177 | 11960 ft | 218 kts | 70° |
| 2026-05-05 18:11 | 44.34929 | 9.69145 | 11961 ft | 217 kts | 70° |
| 2026-05-05 18:11 | 44.35489 | 9.71104 | 11957 ft | 217 kts | 70° |
| 2026-05-05 18:12 | 44.36048 | 9.73033 | 11979 ft | 217 kts | 70° |
| 2026-05-05 18:12 | 44.36614 | 9.74995 | 11968 ft | 218 kts | 70° |
| 2026-05-05 18:12 | 44.37182 | 9.76962 | 11967 ft | 218 kts | 70° |
| 2026-05-05 18:12 | 44.37745 | 9.78936 | 11955 ft | 219 kts | 70° |
| 2026-05-05 18:13 | 44.38310 | 9.80909 | 11959 ft | 218 kts | 70° |
| 2026-05-05 18:13 | 44.38877 | 9.82875 | 11958 ft | 218 kts | 70° |
| 2026-05-05 18:13 | 44.39449 | 9.84850 | 11966 ft | 219 kts | 71° |
| 2026-05-05 18:13 | 44.40006 | 9.86825 | 11978 ft | 219 kts | 70° |
| 2026-05-05 18:14 | 44.40568 | 9.88802 | 11976 ft | 219 kts | 70° |
| 2026-05-05 18:14 | 44.41137 | 9.90783 | 11973 ft | 220 kts | 70° |
| 2026-05-05 18:14 | 44.41706 | 9.92774 | 11969 ft | 221 kts | 70° |
| 2026-05-05 18:14 | 44.42274 | 9.94765 | 11981 ft | 220 kts | 70° |
| 2026-05-05 18:15 | 44.42841 | 9.96755 | 11979 ft | 220 kts | 70° |
| 2026-05-05 18:15 | 44.43409 | 9.98750 | 11996 ft | 221 kts | 70° |
| 2026-05-05 18:15 | 44.43977 | 10.00745 | 11997 ft | 221 kts | 70° |
| 2026-05-05 18:15 | 44.44544 | 10.02747 | 11996 ft | 221 kts | 70° |
| 2026-05-05 18:16 | 44.45111 | 10.04744 | 12003 ft | 221 kts | 70° |
| 2026-05-05 18:16 | 44.45680 | 10.06739 | 11995 ft | 221 kts | 70° |
| 2026-05-05 18:16 | 44.46239 | 10.08711 | 11997 ft | 220 kts | 70° |
| 2026-05-05 18:16 | 44.46801 | 10.10701 | 12001 ft | 220 kts | 70° |
| 2026-05-05 18:17 | 44.47370 | 10.12698 | 11994 ft | 221 kts | 70° |
| 2026-05-05 18:17 | 44.47941 | 10.14698 | 12019 ft | 222 kts | 70° |
| 2026-05-05 18:17 | 44.48508 | 10.16703 | 12013 ft | 221 kts | 70° |
| 2026-05-05 18:17 | 44.49071 | 10.18695 | 12013 ft | 219 kts | 70° |
| 2026-05-05 18:18 | 44.49641 | 10.20673 | 12005 ft | 220 kts | 69° |
| 2026-05-05 18:18 | 44.50219 | 10.22667 | 12010 ft | 221 kts | 69° |
| 2026-05-05 18:18 | 44.50799 | 10.24663 | 12011 ft | 221 kts | 69° |
| 2026-05-05 18:18 | 44.51378 | 10.26657 | 12008 ft | 221 kts | 69° |
| 2026-05-05 18:19 | 44.51954 | 10.28649 | 12020 ft | 221 kts | 69° |
| 2026-05-05 18:19 | 44.52538 | 10.30648 | 12014 ft | 221 kts | 70° |
| 2026-05-05 18:19 | 44.53107 | 10.32641 | 12035 ft | 219 kts | 69° |
| 2026-05-05 18:19 | 44.53670 | 10.34618 | 12029 ft | 219 kts | 69° |
| 2026-05-05 18:20 | 44.54235 | 10.36593 | 12028 ft | 218 kts | 69° |
| 2026-05-05 18:20 | 44.54805 | 10.38569 | 12024 ft | 219 kts | 69° |
| 2026-05-05 18:20 | 44.55368 | 10.40520 | 12019 ft | 219 kts | 69° |
| 2026-05-05 18:20 | 44.55937 | 10.42500 | 12029 ft | 219 kts | 69° |
| 2026-05-05 18:21 | 44.56506 | 10.44481 | 12038 ft | 219 kts | 69° |
| 2026-05-05 18:21 | 44.57078 | 10.46466 | 12034 ft | 220 kts | 69° |
| 2026-05-05 18:21 | 44.57648 | 10.48448 | 12033 ft | 219 kts | 69° |
| 2026-05-05 18:21 | 44.58213 | 10.50435 | 12034 ft | 219 kts | 69° |
| 2026-05-05 18:22 | 44.58777 | 10.52420 | 12036 ft | 219 kts | 69° |
| 2026-05-05 18:22 | 44.59341 | 10.54405 | 12028 ft | 219 kts | 69° |
| 2026-05-05 18:22 | 44.59908 | 10.56392 | 12028 ft | 220 kts | 69° |
| 2026-05-05 18:22 | 44.60477 | 10.58382 | 12028 ft | 220 kts | 69° |
| 2026-05-05 18:23 | 44.61044 | 10.60371 | 12027 ft | 219 kts | 69° |
| 2026-05-05 18:23 | 44.61608 | 10.62360 | 12013 ft | 219 kts | 69° |
| 2026-05-05 18:23 | 44.62173 | 10.64346 | 12026 ft | 219 kts | 69° |
| 2026-05-05 18:23 | 44.62736 | 10.66326 | 12030 ft | 218 kts | 69° |
| 2026-05-05 18:24 | 44.63298 | 10.68305 | 12033 ft | 218 kts | 69° |
| 2026-05-05 18:24 | 44.63859 | 10.70287 | 12032 ft | 219 kts | 69° |
| 2026-05-05 18:24 | 44.64421 | 10.72271 | 12032 ft | 219 kts | 69° |
| 2026-05-05 18:24 | 44.64977 | 10.74231 | 12027 ft | 219 kts | 69° |
| 2026-05-05 18:25 | 44.65539 | 10.76217 | 12027 ft | 219 kts | 69° |
| 2026-05-05 18:25 | 44.65920 | 10.77561 | 12027 ft | 219 kts | 69° |
| 2026-05-05 18:25 | 44.66663 | 10.80193 | 12027 ft | 219 kts | 69° |
| 2026-05-05 18:25 | 44.67225 | 10.82182 | 12023 ft | 219 kts | 69° |
| 2026-05-05 18:26 | 44.67786 | 10.84173 | 12032 ft | 218 kts | 69° |
| 2026-05-05 18:26 | 44.68341 | 10.86150 | 12027 ft | 217 kts | 69° |
| 2026-05-05 18:26 | 44.68895 | 10.88124 | 12027 ft | 217 kts | 69° |
| 2026-05-05 18:26 | 44.69448 | 10.90097 | 12027 ft | 217 kts | 69° |
| 2026-05-05 18:27 | 44.70002 | 10.92072 | 12027 ft | 217 kts | 69° |
| 2026-05-05 18:27 | 44.70557 | 10.94042 | 12021 ft | 217 kts | 69° |
| 2026-05-05 18:27 | 44.71110 | 10.96012 | 12023 ft | 217 kts | 69° |
| 2026-05-05 18:27 | 44.71661 | 10.97983 | 12021 ft | 217 kts | 69° |
| 2026-05-05 18:28 | 44.72763 | 11.01933 | 12014 ft | 217 kts | 69° |
| 2026-05-05 18:28 | 44.73315 | 11.03908 | 12018 ft | 217 kts | 69° |
| 2026-05-05 18:28 | 44.73865 | 11.05880 | 12025 ft | 217 kts | 69° |
| 2026-05-05 18:29 | 44.74413 | 11.07853 | 12024 ft | 217 kts | 69° |
| 2026-05-05 18:29 | 44.74962 | 11.09826 | 12024 ft | 217 kts | 70° |
| 2026-05-05 18:29 | 44.75502 | 11.11775 | 12023 ft | 217 kts | 70° |
| 2026-05-05 18:29 | 44.76051 | 11.13750 | 12025 ft | 217 kts | 70° |
| 2026-05-05 18:30 | 44.76599 | 11.15726 | 12023 ft | 217 kts | 70° |
| 2026-05-05 18:30 | 44.77147 | 11.17702 | 12024 ft | 217 kts | 69° |
| 2026-05-05 18:30 | 44.77697 | 11.19679 | 12013 ft | 217 kts | 70° |
| 2026-05-05 18:30 | 44.78246 | 11.21657 | 12015 ft | 217 kts | 70° |
| 2026-05-05 18:31 | 44.78792 | 11.23636 | 12014 ft | 217 kts | 70° |
| 2026-05-05 18:31 | 44.79336 | 11.25615 | 11991 ft | 217 kts | 70° |
| 2026-05-05 18:31 | 44.79882 | 11.27589 | 11997 ft | 216 kts | 70° |
| 2026-05-05 18:31 | 44.80428 | 11.29565 | 11994 ft | 217 kts | 70° |
| 2026-05-05 18:32 | 44.80973 | 11.31541 | 11997 ft | 217 kts | 70° |
| 2026-05-05 18:32 | 44.81518 | 11.33520 | 12000 ft | 216 kts | 70° |
| 2026-05-05 18:32 | 44.82062 | 11.35494 | 12010 ft | 216 kts | 70° |
| 2026-05-05 18:32 | 44.82607 | 11.37464 | 12007 ft | 216 kts | 70° |
| 2026-05-05 18:33 | 44.83150 | 11.39436 | 12007 ft | 216 kts | 70° |
| 2026-05-05 18:33 | 44.83692 | 11.41416 | 12007 ft | 217 kts | 70° |
| 2026-05-05 18:33 | 44.84234 | 11.43393 | 12009 ft | 216 kts | 70° |
| 2026-05-05 18:33 | 44.84774 | 11.45370 | 12013 ft | 216 kts | 70° |
| 2026-05-05 18:34 | 44.85313 | 11.47345 | 12009 ft | 215 kts | 70° |
| 2026-05-05 18:34 | 44.85851 | 11.49304 | 12009 ft | 214 kts | 70° |
| 2026-05-05 18:34 | 44.86387 | 11.51258 | 12012 ft | 214 kts | 70° |
| 2026-05-05 18:34 | 44.86922 | 11.53217 | 12013 ft | 214 kts | 70° |
| 2026-05-05 18:35 | 44.87455 | 11.55174 | 12012 ft | 214 kts | 70° |
| 2026-05-05 18:35 | 44.87988 | 11.57130 | 12006 ft | 214 kts | 70° |
| 2026-05-05 18:35 | 44.88522 | 11.59091 | 12006 ft | 214 kts | 70° |
| 2026-05-05 18:35 | 44.89049 | 11.61028 | 12009 ft | 214 kts | 70° |
| 2026-05-05 18:36 | 44.89582 | 11.62988 | 12012 ft | 214 kts | 70° |
| 2026-05-05 18:36 | 44.90116 | 11.64946 | 12014 ft | 214 kts | 70° |
| 2026-05-05 18:36 | 44.90649 | 11.66907 | 12002 ft | 214 kts | 70° |
| 2026-05-05 18:36 | 44.91182 | 11.68869 | 12003 ft | 214 kts | 70° |
| 2026-05-05 18:37 | 44.91714 | 11.70835 | 12004 ft | 215 kts | 70° |
| 2026-05-05 18:37 | 44.92247 | 11.72801 | 12003 ft | 215 kts | 70° |
| 2026-05-05 18:37 | 44.92780 | 11.74769 | 12000 ft | 215 kts | 70° |
| 2026-05-05 18:37 | 44.93313 | 11.76738 | 12002 ft | 215 kts | 70° |
| 2026-05-05 18:38 | 44.93843 | 11.78705 | 12001 ft | 214 kts | 70° |
| 2026-05-05 18:38 | 44.94374 | 11.80672 | 12003 ft | 214 kts | 70° |
| 2026-05-05 18:38 | 44.94905 | 11.82638 | 12002 ft | 214 kts | 70° |
| 2026-05-05 18:38 | 44.95435 | 11.84605 | 11996 ft | 214 kts | 70° |
| 2026-05-05 18:39 | 44.95957 | 11.86548 | 12016 ft | 209 kts | 70° |
| 2026-05-05 18:39 | 44.96476 | 11.88451 | 11949 ft | 206 kts | 70° |
| 2026-05-05 18:39 | 44.96988 | 11.90329 | 11864 ft | 204 kts | 70° |
| 2026-05-05 18:39 | 44.97493 | 11.92193 | 11703 ft | 205 kts | 70° |
| 2026-05-05 18:40 | 44.98005 | 11.94100 | 11469 ft | 209 kts | 70° |
| 2026-05-05 18:40 | 44.98521 | 11.96024 | 11305 ft | 209 kts | 70° |
| 2026-05-05 18:40 | 44.99036 | 11.97946 | 11154 ft | 209 kts | 70° |
| 2026-05-05 18:40 | 44.99549 | 11.99862 | 11004 ft | 208 kts | 70° |
| 2026-05-05 18:41 | 45.00055 | 12.01749 | 10852 ft | 208 kts | 70° |
| 2026-05-05 18:41 | 45.00621 | 12.03622 | 10687 ft | 208 kts | 58° |
| 2026-05-05 18:41 | 45.01664 | 12.05017 | 10437 ft | 209 kts | 26° |
| 2026-05-05 18:41 | 45.03040 | 12.05568 | 10285 ft | 203 kts | 2° |
| 2026-05-05 18:42 | 45.04430 | 12.05640 | 10181 ft | 197 kts | 353° |
| 2026-05-05 18:42 | 45.05796 | 12.05544 | 10032 ft | 196 kts | 351° |
| 2026-05-05 18:42 | 45.07156 | 12.05463 | 9871 ft | 194 kts | 353° |
| 2026-05-05 18:42 | 45.08501 | 12.05432 | 9673 ft | 193 kts | 354° |
| 2026-05-05 18:43 | 45.09845 | 12.05437 | 9469 ft | 194 kts | 355° |
| 2026-05-05 18:43 | 45.11197 | 12.05469 | 9291 ft | 194 kts | 356° |
| 2026-05-05 18:43 | 45.12546 | 12.05512 | 9073 ft | 194 kts | 356° |
| 2026-05-05 18:43 | 45.13895 | 12.05569 | 8869 ft | 194 kts | 356° |
| 2026-05-05 18:44 | 45.15233 | 12.05637 | 8659 ft | 190 kts | 356° |
| 2026-05-05 18:44 | 45.16545 | 12.05697 | 8414 ft | 189 kts | 356° |
| 2026-05-05 18:44 | 45.17852 | 12.05753 | 8164 ft | 187 kts | 356° |
| 2026-05-05 18:44 | 45.19152 | 12.05809 | 7916 ft | 187 kts | 356° |
| 2026-05-05 18:45 | 45.20444 | 12.05867 | 7671 ft | 184 kts | 356° |
| 2026-05-05 18:45 | 45.21714 | 12.05925 | 7388 ft | 181 kts | 356° |
| 2026-05-05 18:45 | 45.22947 | 12.05981 | 7091 ft | 172 kts | 355° |
| 2026-05-05 18:45 | 45.24101 | 12.06023 | 6807 ft | 161 kts | 356° |
| 2026-05-05 18:46 | 45.25194 | 12.06080 | 6515 ft | 153 kts | 355° |
| 2026-05-05 18:46 | 45.26243 | 12.06130 | 6159 ft | 150 kts | 355° |
| 2026-05-05 18:46 | 45.27297 | 12.06250 | 5683 ft | 155 kts | 8° |
| 2026-05-05 18:46 | 45.28296 | 12.06862 | 5244 ft | 159 kts | 30° |
| 2026-05-05 18:47 | 45.29157 | 12.07848 | 4874 ft | 159 kts | 38° |
| 2026-05-05 18:47 | 45.29976 | 12.08881 | 4505 ft | 156 kts | 40° |
| 2026-05-05 18:47 | 45.30774 | 12.09913 | 4133 ft | 154 kts | 42° |
| 2026-05-05 18:47 | 45.31549 | 12.10941 | 3773 ft | 151 kts | 42° |
| 2026-05-05 18:48 | 45.32324 | 12.11932 | 3417 ft | 149 kts | 41° |
| 2026-05-05 18:48 | 45.33150 | 12.12957 | 3197 ft | 164 kts | 41° |
| 2026-05-05 18:48 | 45.34018 | 12.14020 | 3184 ft | 168 kts | 42° |
| 2026-05-05 18:48 | 45.34892 | 12.15134 | 3189 ft | 168 kts | 43° |
| 2026-05-05 18:49 | 45.35733 | 12.16212 | 3180 ft | 160 kts | 43° |
| 2026-05-05 18:49 | 45.36549 | 12.17258 | 3176 ft | 155 kts | 43° |
| 2026-05-05 18:49 | 45.37342 | 12.18275 | 3184 ft | 151 kts | 43° |
| 2026-05-05 18:49 | 45.38130 | 12.19287 | 3064 ft | 155 kts | 43° |
| 2026-05-05 18:50 | 45.38935 | 12.20320 | 2841 ft | 157 kts | 43° |
| 2026-05-05 18:50 | 45.39742 | 12.21354 | 2641 ft | 155 kts | 43° |
| 2026-05-05 18:50 | 45.40533 | 12.22367 | 2421 ft | 152 kts | 43° |
| 2026-05-05 18:50 | 45.41309 | 12.23362 | 2208 ft | 148 kts | 44° |
| 2026-05-05 18:51 | 45.42067 | 12.24336 | 2005 ft | 145 kts | 44° |
| 2026-05-05 18:51 | 45.42811 | 12.25292 | 1813 ft | 143 kts | 44° |
| 2026-05-05 18:51 | 45.43543 | 12.26232 | 1617 ft | 141 kts | 44° |
| 2026-05-05 18:51 | 45.44264 | 12.27157 | 1429 ft | 138 kts | 44° |
| 2026-05-05 18:52 | 45.44975 | 12.28075 | 1234 ft | 138 kts | 44° |
| 2026-05-05 18:52 | 45.45683 | 12.28987 | 1045 ft | 137 kts | 43° |
| 2026-05-05 18:52 | 45.46331 | 12.29822 | 851 ft | 113 kts | 42° |
| 2026-05-05 18:52 | 45.46868 | 12.30511 | 735 ft | 99 kts | 41° |
| 2026-05-05 18:53 | 45.47386 | 12.31175 | 579 ft | 101 kts | 42° |
| 2026-05-05 18:53 | 45.47903 | 12.31840 | 468 ft | 99 kts | 41° |
| 2026-05-05 18:53 | 45.48424 | 12.32489 | 308 ft | 98 kts | 41° |
| 2026-05-05 18:53 | 45.48920 | 12.33145 | 179 ft | 97 kts | 43° |
| 2026-05-05 18:54 | 45.49251 | 12.33571 | 108 ft | 96 kts | 40° |
| 2026-05-05 18:54 | 45.49745 | 12.34195 | 13 ft | 91 kts | 42° |
| 2026-05-05 18:54 | 45.50122 | 12.34684 | 10 ft | 52 kts | 43° |
| 2026-05-05 18:54 | 45.50346 | 12.34969 | 6 ft | 33 kts | 40° |
| 2026-05-05 18:55 | 45.50511 | 12.35063 | 6 ft | 21 kts | 12° |
| 2026-05-05 18:55 | 45.50612 | 12.35024 | 6 ft | 13 kts | 279° |
| 2026-05-05 18:55 | 45.50610 | 12.34907 | 7 ft | 11 kts | 267° |
| 2026-05-05 18:55 | 45.50608 | 12.34797 | 8 ft | 11 kts | 268° |
| 2026-05-05 18:56 | 45.50566 | 12.34705 | 10 ft | 12 kts | 222° |
| 2026-05-05 18:56 | 45.50493 | 12.34616 | 12 ft | 16 kts | 220° |
| 2026-05-05 18:56 | 45.50397 | 12.34501 | 13 ft | 18 kts | 224° |
| 2026-05-05 18:56 | 45.50316 | 12.34383 | 15 ft | 16 kts | 224° |
| 2026-05-05 18:57 | 45.50227 | 12.34274 | 12 ft | 18 kts | 221° |
| 2026-05-05 18:57 | 45.50139 | 12.34157 | 11 ft | 17 kts | 223° |
| 2026-05-05 18:57 | 45.50043 | 12.34034 | 7 ft | 19 kts | 220° |
| 2026-05-05 18:57 | 45.49948 | 12.33912 | 9 ft | 18 kts | 221° |
| 2026-05-05 18:58 | 45.49858 | 12.33793 | 9 ft | 17 kts | 225° |
| 2026-05-05 18:58 | 45.49812 | 12.33686 | 12 ft | 9 kts | 317° |
| 2026-05-05 18:58 | 45.49808 | 12.33643 | 13 ft | 5 kts | 206° |
| 2026-05-05 18:58 | 45.49796 | 12.33622 | 13 ft | 0 kts | 225° |